createdAt,value
2022-10-14T00:01:24.042Z,57.66
2022-10-14T00:03:53.977Z,57.47
2022-10-14T00:06:26.973Z,57.69
2022-10-14T00:08:55.823Z,57.96
2022-10-14T00:11:27.554Z,57.87
2022-10-14T00:13:58.044Z,57.79
2022-10-14T00:16:28.915Z,57.87
2022-10-14T00:18:58.131Z,57.88
2022-10-14T00:21:28.878Z,57.95
2022-10-14T00:23:57.978Z,57.98
2022-10-14T00:26:30.859Z,58.04
2022-10-14T00:29:00.708Z,57.90
2022-10-14T00:31:29.585Z,58.27
2022-10-14T00:33:58.041Z,58.15
2022-10-14T00:36:28.750Z,58.18
2022-10-14T00:38:57.412Z,58.11
2022-10-14T00:41:28.867Z,58.20
2022-10-14T00:44:03.542Z,58.18
2022-10-14T00:46:34.841Z,58.21
2022-10-14T00:49:08.105Z,58.17
2022-10-14T00:51:40.262Z,58.21
2022-10-14T00:54:09.319Z,58.29
2022-10-14T00:56:38.102Z,58.33
2022-10-14T00:59:07.695Z,58.41
2022-10-14T01:01:35.974Z,58.42
2022-10-14T01:04:04.298Z,58.31
2022-10-14T01:06:49.101Z,58.28
2022-10-14T01:09:25.719Z,58.38
2022-10-14T01:12:27.525Z,58.47
2022-10-14T01:15:05.808Z,58.34
2022-10-14T01:17:46.144Z,58.41
2022-10-14T01:21:04.934Z,58.38
2022-10-14T01:24:11.200Z,58.28
2022-10-14T01:27:09.348Z,58.41
2022-10-14T01:30:23.997Z,58.24
2022-10-14T01:33:08.491Z,58.44
2022-10-14T01:35:52.580Z,58.48
2022-10-14T01:38:25.729Z,58.57
2022-10-14T01:40:59.788Z,58.50
2022-10-14T01:43:29.803Z,58.43
2022-10-14T01:46:02.101Z,58.38
2022-10-14T01:48:36.978Z,58.46
2022-10-14T01:51:11.061Z,58.35
2022-10-14T01:53:44.124Z,58.33
2022-10-14T01:56:14.609Z,58.53
2022-10-14T01:58:43.856Z,58.52
2022-10-14T02:01:13.519Z,58.57
2022-10-14T02:03:45.055Z,58.37
2022-10-14T02:06:19.423Z,58.43
2022-10-14T02:09:07.349Z,58.41
2022-10-14T02:11:42.747Z,58.41
2022-10-14T02:14:21.690Z,58.26
2022-10-14T02:17:01.683Z,58.14
2022-10-14T02:19:40.593Z,58.10
2022-10-14T02:22:15.121Z,58.20
2022-10-14T02:24:48.656Z,58.10
2022-10-14T02:27:20.127Z,58.18
2022-10-14T02:29:49.397Z,58.07
2022-10-14T02:32:22.204Z,58.00
2022-10-14T02:34:54.842Z,58.15
2022-10-14T02:37:24.633Z,58.15
2022-10-14T02:39:59.213Z,58.07
2022-10-14T02:42:29.213Z,58.13
2022-10-14T02:45:01.639Z,58.13
2022-10-14T02:47:31.227Z,58.13
2022-10-14T02:49:59.444Z,58.31
2022-10-14T02:52:27.824Z,58.20
2022-10-14T02:54:56.111Z,58.41
2022-10-14T02:57:24.356Z,58.54
2022-10-14T02:59:52.608Z,58.46
2022-10-14T03:02:21.138Z,58.55
2022-10-14T03:04:50.855Z,58.49
2022-10-14T03:07:19.127Z,58.70
2022-10-14T03:09:47.380Z,58.68
2022-10-14T03:12:15.615Z,58.72
2022-10-14T03:14:43.878Z,58.61
2022-10-14T03:17:12.458Z,58.72
2022-10-14T03:19:40.711Z,58.75
2022-10-14T03:22:10.277Z,58.72
2022-10-14T03:24:38.499Z,58.75
2022-10-14T03:27:06.708Z,58.75
2022-10-14T03:29:35.005Z,58.91
2022-10-14T03:32:03.202Z,58.89
2022-10-14T03:34:31.425Z,58.99
2022-10-14T03:36:59.622Z,58.98
2022-10-14T03:39:29.260Z,58.99
2022-10-14T03:41:57.476Z,58.87
2022-10-14T03:44:25.657Z,59.00
2022-10-14T03:46:53.858Z,58.96
2022-10-14T03:49:22.106Z,59.05
2022-10-14T03:51:50.345Z,59.13
2022-10-14T03:54:18.760Z,59.01
2022-10-14T03:56:48.407Z,59.06
2022-10-14T03:59:16.793Z,59.10
2022-10-14T04:01:45.142Z,59.02
2022-10-14T04:04:13.501Z,59.14
2022-10-14T04:06:41.782Z,59.21
2022-10-14T04:09:10.044Z,59.27
2022-10-14T04:11:38.290Z,59.15
2022-10-14T04:14:07.919Z,59.12
2022-10-14T04:16:36.261Z,59.22
2022-10-14T04:19:04.537Z,59.17
2022-10-14T04:21:32.865Z,59.24
2022-10-14T04:24:04.806Z,59.10
2022-10-14T04:26:35.655Z,59.25
2022-10-14T04:29:03.984Z,59.19
2022-10-14T04:31:33.540Z,59.20
2022-10-14T04:34:01.765Z,59.23
2022-10-14T04:36:30.010Z,59.23
2022-10-14T04:38:58.263Z,59.36
2022-10-14T04:41:26.566Z,59.31
2022-10-14T04:43:54.858Z,59.25
2022-10-14T04:46:23.099Z,59.29
2022-10-14T04:48:52.692Z,59.23
2022-10-14T04:51:20.915Z,59.25
2022-10-14T04:53:49.119Z,59.23
2022-10-14T04:56:17.467Z,59.08
2022-10-14T04:58:45.713Z,59.15
2022-10-14T05:01:13.958Z,59.10
2022-10-14T05:03:42.241Z,59.16
2022-10-14T05:06:11.958Z,59.26
2022-10-14T05:08:40.261Z,59.17
2022-10-14T05:11:08.539Z,59.13
2022-10-14T05:13:37.195Z,59.16
2022-10-14T05:16:05.991Z,59.28
2022-10-14T05:18:34.289Z,59.29
2022-10-14T05:21:03.003Z,59.22
2022-10-14T05:23:32.649Z,59.33
2022-10-14T05:26:00.855Z,59.10
2022-10-14T05:28:29.536Z,59.18
2022-10-14T05:30:57.803Z,59.26
2022-10-14T05:33:26.131Z,59.22
2022-10-14T05:35:58.968Z,59.19
2022-10-14T05:38:28.051Z,59.14
2022-10-14T05:40:58.776Z,59.14
2022-10-14T05:43:31.998Z,59.23
2022-10-14T05:46:01.257Z,59.30
2022-10-14T05:48:29.635Z,59.30
2022-10-14T05:51:01.478Z,59.29
2022-10-14T05:53:30.563Z,59.30
2022-10-14T05:56:05.652Z,59.34
2022-10-14T05:58:34.165Z,59.34
2022-10-14T06:01:02.552Z,59.40
2022-10-14T06:03:30.918Z,59.43
2022-10-14T06:05:59.355Z,59.50
2022-10-14T06:08:27.945Z,59.50
2022-10-14T06:10:56.251Z,59.45
2022-10-14T06:13:25.975Z,59.57
2022-10-14T06:15:54.207Z,59.66
2022-10-14T06:18:22.430Z,59.61
2022-10-14T06:20:54.569Z,59.81
2022-10-14T06:23:23.051Z,59.88
2022-10-14T06:25:51.368Z,59.94
2022-10-14T06:28:19.892Z,59.95
2022-10-14T06:30:52.518Z,60.01
2022-10-14T06:33:21.635Z,60.19
2022-10-14T06:35:50.626Z,60.07
2022-10-14T06:38:18.989Z,60.06
2022-10-14T06:40:47.242Z,60.14
2022-10-14T06:43:15.470Z,60.16
2022-10-14T06:45:43.679Z,60.13
2022-10-14T06:48:13.482Z,60.19
2022-10-14T06:50:42.467Z,60.26
2022-10-14T06:53:10.805Z,60.37
2022-10-14T06:55:39.052Z,60.28
2022-10-14T06:58:07.459Z,60.43
2022-10-14T07:00:37.252Z,60.50
2022-10-14T07:03:05.668Z,60.58
2022-10-14T07:05:36.363Z,60.55
2022-10-14T07:08:04.599Z,60.68
2022-10-14T07:10:32.828Z,60.82
2022-10-14T07:13:01.469Z,60.84
2022-10-14T07:15:33.857Z,61.04
2022-10-14T07:18:06.099Z,61.05
2022-10-14T07:20:36.546Z,61.11
2022-10-14T07:23:04.810Z,61.14
2022-10-14T07:25:33.577Z,61.01
2022-10-14T07:28:02.173Z,61.16
2022-10-14T07:30:30.556Z,61.11
2022-10-14T07:33:00.143Z,61.09
2022-10-14T07:35:28.767Z,61.39
2022-10-14T07:38:00.768Z,61.77
2022-10-14T07:40:30.420Z,61.64
2022-10-14T07:42:58.630Z,62.27
2022-10-14T07:45:27.114Z,62.30
2022-10-14T07:47:55.348Z,61.89
2022-10-14T07:50:23.577Z,61.89
2022-10-14T07:52:51.798Z,61.73
2022-10-14T07:55:21.457Z,61.81
2022-10-14T07:57:49.709Z,62.50
2022-10-14T08:00:18.446Z,62.46
2022-10-14T08:02:46.686Z,63.02
2022-10-14T08:08:03.308Z,61.57
2022-10-14T08:10:32.988Z,61.23
2022-10-14T08:13:01.232Z,60.76
2022-10-14T08:15:30.400Z,60.26
2022-10-14T08:17:58.759Z,60.15
2022-10-14T08:20:27.104Z,59.28
2022-10-14T08:22:56.081Z,59.46
2022-10-14T08:25:24.355Z,59.23
2022-10-14T08:27:57.346Z,58.86
2022-10-14T08:30:26.152Z,58.03
2022-10-14T08:32:55.253Z,57.74
2022-10-14T08:35:23.690Z,57.67
2022-10-14T08:37:58.997Z,58.03
2022-10-14T08:40:29.481Z,58.30
2022-10-14T08:43:05.413Z,57.85
2022-10-14T08:45:39.046Z,58.04
2022-10-14T08:48:19.315Z,57.16
2022-10-14T08:50:54.448Z,56.41
2022-10-14T08:53:28.342Z,55.94
2022-10-14T08:56:00.860Z,56.16
2022-10-14T08:58:36.087Z,54.63
2022-10-14T09:01:24.253Z,54.20
2022-10-14T09:03:54.918Z,53.30
2022-10-14T09:06:28.341Z,53.13
2022-10-14T09:09:01.662Z,52.59
2022-10-14T09:11:34.501Z,52.30
2022-10-14T09:14:04.845Z,50.47
2022-10-14T09:16:36.640Z,49.52
2022-10-14T09:19:08.894Z,48.85
2022-10-14T09:21:54.205Z,48.81
2022-10-14T09:24:25.200Z,48.92
2022-10-14T09:26:58.450Z,48.72
2022-10-14T09:29:31.631Z,48.77
2022-10-14T09:32:02.861Z,49.72
2022-10-14T09:34:35.751Z,49.59
2022-10-14T09:37:25.009Z,49.61
2022-10-14T09:39:56.210Z,49.92
2022-10-14T09:42:29.479Z,49.95
2022-10-14T09:45:15.692Z,49.83
2022-10-14T09:47:52.460Z,49.16
2022-10-14T09:50:27.147Z,48.85
2022-10-14T09:53:02.789Z,47.05
2022-10-14T09:55:31.850Z,46.79
2022-10-14T09:58:07.807Z,46.63
2022-10-14T10:00:38.918Z,44.94
2022-10-14T10:03:09.908Z,44.52
2022-10-14T10:05:39.855Z,45.02
2022-10-14T10:08:18.013Z,45.03
2022-10-14T10:11:05.473Z,44.39
2022-10-14T10:13:44.932Z,43.58
2022-10-14T10:16:25.487Z,43.58
2022-10-14T10:18:57.251Z,43.83
2022-10-14T10:21:30.098Z,43.12
2022-10-14T10:24:00.778Z,43.04
2022-10-14T10:26:32.897Z,43.33
2022-10-14T10:29:03.828Z,43.63
2022-10-14T10:32:08.703Z,44.74
2022-10-14T10:35:02.326Z,44.43
2022-10-14T10:37:33.326Z,44.99
2022-10-14T10:40:28.962Z,44.98
2022-10-14T10:43:16.422Z,44.87
2022-10-14T10:46:07.836Z,44.60
2022-10-14T10:48:47.819Z,44.39
2022-10-14T10:51:26.737Z,44.23
2022-10-14T10:54:08.226Z,44.66
2022-10-14T10:56:44.981Z,45.03
2022-10-14T10:59:37.688Z,45.28
2022-10-14T11:02:34.171Z,44.19
2022-10-14T11:05:13.879Z,44.35
2022-10-14T11:08:12.595Z,43.41
2022-10-14T11:11:09.364Z,44.00
2022-10-14T11:13:46.734Z,44.21
2022-10-14T11:16:21.496Z,43.42
2022-10-14T11:18:52.918Z,43.62
2022-10-14T11:21:38.013Z,44.50
2022-10-14T11:24:11.545Z,44.40
2022-10-14T11:26:57.715Z,43.86
2022-10-14T11:30:08.865Z,44.38
2022-10-14T11:32:51.719Z,44.43
2022-10-14T11:38:31.920Z,44.22
2022-10-14T11:41:07.691Z,43.36
2022-10-14T11:43:45.041Z,43.85
2022-10-14T11:46:17.149Z,43.89
2022-10-14T11:48:51.177Z,43.46
2022-10-14T11:51:26.113Z,43.31
2022-10-14T11:54:02.204Z,42.67
2022-10-14T11:56:38.969Z,42.48
2022-10-14T11:59:46.040Z,42.56
2022-10-14T12:02:22.723Z,41.91
2022-10-14T12:04:58.480Z,41.82
2022-10-14T12:07:34.194Z,41.34
2022-10-14T12:10:14.518Z,41.15
2022-10-14T12:12:44.508Z,41.51
2022-10-14T12:15:19.399Z,41.59
2022-10-14T12:17:52.354Z,42.08
2022-10-14T12:20:35.689Z,41.46
2022-10-14T12:23:07.816Z,40.88
2022-10-14T12:25:45.483Z,40.44
2022-10-14T12:28:15.453Z,40.82
2022-10-14T12:30:44.090Z,40.44
2022-10-14T12:33:22.320Z,40.51
2022-10-14T12:36:00.297Z,40.33
2022-10-14T12:38:31.382Z,38.69
2022-10-14T12:41:35.141Z,39.44
2022-10-14T12:44:04.490Z,39.24
2022-10-14T12:46:35.785Z,38.94
2022-10-14T12:49:05.187Z,38.41
2022-10-14T12:51:33.438Z,38.62
2022-10-14T12:54:15.632Z,38.86
2022-10-14T12:56:55.245Z,39.35
2022-10-14T12:59:28.355Z,39.59
2022-10-14T13:01:59.707Z,39.11
2022-10-14T13:04:28.716Z,39.39
2022-10-14T13:07:41.538Z,40.42
2022-10-14T13:10:50.532Z,40.19
2022-10-14T13:13:54.403Z,40.02
2022-10-14T13:16:59.869Z,40.18
2022-10-14T13:19:45.471Z,40.11
2022-10-14T13:22:42.006Z,39.85
2022-10-14T13:25:22.842Z,40.24
2022-10-14T13:28:06.087Z,39.34
2022-10-14T13:30:48.003Z,39.44
2022-10-14T13:33:23.852Z,39.07
2022-10-14T13:36:05.598Z,39.40
2022-10-14T13:38:35.738Z,39.50
2022-10-14T13:41:05.020Z,39.64
2022-10-14T13:43:39.687Z,39.82
2022-10-14T13:46:15.448Z,40.39
2022-10-14T13:48:47.062Z,40.48
2022-10-14T13:51:37.766Z,40.90
2022-10-14T13:54:19.988Z,40.62
2022-10-14T14:02:47.227Z,40.98
2022-10-14T14:05:21.077Z,40.69
2022-10-14T14:11:03.702Z,41.00
2022-10-14T14:13:29.692Z,41.02
2022-10-14T14:15:58.526Z,40.93
2022-10-14T14:18:49.386Z,40.99
2022-10-14T14:21:26.586Z,42.35
2022-10-14T14:23:56.766Z,41.54
2022-10-14T14:26:33.854Z,41.10
2022-10-14T14:29:06.059Z,41.57
2022-10-14T14:32:05.103Z,42.21
2022-10-14T14:34:26.314Z,42.63
2022-10-14T14:37:01.320Z,42.72
2022-10-14T14:39:33.898Z,41.89
2022-10-14T14:42:02.696Z,42.39
2022-10-14T14:44:34.505Z,42.50
2022-10-14T14:47:05.243Z,42.66
2022-10-14T14:49:39.210Z,42.57
2022-10-14T14:52:08.480Z,42.90
2022-10-14T14:54:46.002Z,42.67
2022-10-14T14:57:19.816Z,43.02
2022-10-14T15:00:02.581Z,42.84
2022-10-14T15:02:34.083Z,43.00
2022-10-14T15:05:07.114Z,43.40
2022-10-14T15:07:36.773Z,43.66
2022-10-14T15:10:18.813Z,43.37
2022-10-14T15:12:55.567Z,43.50
2022-10-14T15:15:31.147Z,43.73
2022-10-14T15:18:20.868Z,43.48
2022-10-14T15:20:50.801Z,43.58
2022-10-14T15:23:43.008Z,43.88
2022-10-14T15:26:29.924Z,44.11
2022-10-14T15:32:13.785Z,44.40
2022-10-14T15:34:42.539Z,44.21
2022-10-14T15:37:14.549Z,44.07
2022-10-14T15:39:43.108Z,44.36
2022-10-14T15:42:13.320Z,44.46
2022-10-14T15:44:41.622Z,45.10
2022-10-14T15:47:22.488Z,44.97
2022-10-14T15:49:50.834Z,45.41
2022-10-14T15:52:23.037Z,45.42
2022-10-14T15:54:54.809Z,45.77
2022-10-14T15:57:23.835Z,45.58
2022-10-14T15:59:53.749Z,45.53
2022-10-14T16:02:25.846Z,45.90
2022-10-14T16:07:45.497Z,45.79
2022-10-14T16:10:17.137Z,46.08
2022-10-14T16:12:46.000Z,46.36
2022-10-14T16:15:36.003Z,46.43
2022-10-14T16:18:04.471Z,46.50
2022-10-14T16:20:33.007Z,46.38
2022-10-14T16:23:04.761Z,46.69
2022-10-14T16:25:39.376Z,46.86
2022-10-14T16:28:10.434Z,46.93
2022-10-14T16:30:41.883Z,47.18
2022-10-14T16:35:46.939Z,47.31
2022-10-14T16:38:16.805Z,47.60
2022-10-14T16:40:45.173Z,47.62
2022-10-14T16:43:13.626Z,47.81
2022-10-14T16:45:41.989Z,48.04
2022-10-14T16:48:10.259Z,48.24
2022-10-14T16:50:38.588Z,48.39
2022-10-14T16:53:24.542Z,48.41
2022-10-14T16:55:57.782Z,48.61
2022-10-14T16:58:27.839Z,48.57
2022-10-14T17:00:56.359Z,48.86
2022-10-14T17:03:24.719Z,48.71
2022-10-14T17:05:59.363Z,48.89
2022-10-14T17:08:27.854Z,48.67
2022-10-14T17:10:59.949Z,49.13
2022-10-14T17:13:28.346Z,49.23
2022-10-14T17:16:02.001Z,48.69
2022-10-14T17:18:34.566Z,48.73
2022-10-14T17:21:07.067Z,49.16
2022-10-14T17:23:35.838Z,49.49
2022-10-14T17:26:07.045Z,49.67
2022-10-14T17:28:35.464Z,49.45
2022-10-14T17:31:08.755Z,49.71
2022-10-14T17:33:37.235Z,49.47
2022-10-14T17:36:07.055Z,49.76
2022-10-14T17:38:36.774Z,49.71
2022-10-14T17:41:08.846Z,49.67
2022-10-14T17:43:37.759Z,49.82
2022-10-14T17:48:43.366Z,49.61
2022-10-14T17:51:12.102Z,50.09
2022-10-14T17:53:41.297Z,49.99
2022-10-14T17:56:13.121Z,49.89
2022-10-14T17:58:42.258Z,50.00
2022-10-14T18:01:14.487Z,50.25
2022-10-14T18:03:44.655Z,49.90
2022-10-14T18:06:15.743Z,50.27
2022-10-14T18:08:46.183Z,49.86
2022-10-14T18:11:16.539Z,50.20
2022-10-14T18:13:44.940Z,50.04
2022-10-14T18:16:14.861Z,50.42
2022-10-14T18:18:43.510Z,50.75
2022-10-14T18:21:12.140Z,50.49
2022-10-14T18:23:42.365Z,50.71
2022-10-14T18:26:13.620Z,50.62
2022-10-14T18:28:45.451Z,50.78
2022-10-14T18:31:15.933Z,50.83
2022-10-14T18:33:45.952Z,50.91
2022-10-14T18:36:17.546Z,51.45
2022-10-14T18:38:52.361Z,51.49
2022-10-14T18:41:21.939Z,51.31
2022-10-14T18:43:52.420Z,51.73
2022-10-14T18:46:23.443Z,51.79
2022-10-14T18:48:54.501Z,51.65
2022-10-14T18:51:26.610Z,51.67
2022-10-14T18:53:58.488Z,51.76
2022-10-14T18:56:29.865Z,51.95
2022-10-14T18:59:01.817Z,52.01
2022-10-14T19:01:31.144Z,51.93
2022-10-14T19:04:00.638Z,52.26
2022-10-14T19:06:29.027Z,51.82
2022-10-14T19:08:57.369Z,51.81
2022-10-14T19:11:26.744Z,51.76
2022-10-14T19:13:58.538Z,51.72
2022-10-14T19:16:29.407Z,52.06
2022-10-14T19:18:59.982Z,52.08
2022-10-14T19:21:30.335Z,51.97
2022-10-14T19:23:59.543Z,52.09
2022-10-14T19:26:31.095Z,51.91
2022-10-14T19:29:04.264Z,51.91
2022-10-14T19:31:37.501Z,52.02
2022-10-14T19:34:08.045Z,52.04
2022-10-14T19:36:39.411Z,52.06
2022-10-14T19:39:11.216Z,52.18
2022-10-14T19:41:43.201Z,52.01
2022-10-14T19:44:14.513Z,51.93
2022-10-14T19:46:43.613Z,52.28
2022-10-14T19:49:14.934Z,52.22
2022-10-14T19:51:43.306Z,52.50
2022-10-14T19:54:13.059Z,52.27
2022-10-14T19:56:41.788Z,52.54
2022-10-14T19:59:13.550Z,52.67
2022-10-14T20:01:42.479Z,52.62
2022-10-14T20:04:11.081Z,52.46
2022-10-14T20:06:40.432Z,52.42
2022-10-14T20:09:09.865Z,52.25
2022-10-14T20:11:38.270Z,52.39
2022-10-14T20:14:06.674Z,52.50
2022-10-14T20:16:36.449Z,52.57
2022-10-14T20:19:06.168Z,52.51
2022-10-14T20:21:34.447Z,52.08
2022-10-14T20:24:02.759Z,52.35
2022-10-14T20:26:31.168Z,52.27
2022-10-14T20:28:59.796Z,52.14
2022-10-14T20:31:28.124Z,52.47
2022-10-14T20:33:58.338Z,52.46
2022-10-14T20:36:27.258Z,52.37
2022-10-14T20:38:55.593Z,52.20
2022-10-14T20:41:26.567Z,52.45
2022-10-14T20:43:56.384Z,52.46
2022-10-14T20:46:25.592Z,52.26
2022-10-14T20:48:59.494Z,52.46
2022-10-14T20:51:28.402Z,52.18
2022-10-14T20:54:01.890Z,52.61
2022-10-14T20:56:34.845Z,52.76
2022-10-14T20:59:06.119Z,52.81
2022-10-14T21:01:36.282Z,52.49
2022-10-14T21:04:08.483Z,52.72
2022-10-14T21:06:38.827Z,52.53
2022-10-14T21:09:07.445Z,52.47
2022-10-14T21:11:35.856Z,52.81
2022-10-14T21:14:04.550Z,52.69
2022-10-14T21:16:35.096Z,52.98
2022-10-14T21:19:07.424Z,52.81
2022-10-14T21:21:38.587Z,52.86
2022-10-14T21:24:08.208Z,53.04
2022-10-14T21:26:36.490Z,53.32
2022-10-14T21:29:05.608Z,53.18
2022-10-14T21:31:33.981Z,53.57
2022-10-14T21:34:06.710Z,53.52
2022-10-14T21:36:35.561Z,53.53
2022-10-14T21:39:07.638Z,53.52
2022-10-14T21:41:36.257Z,53.66
2022-10-14T21:44:04.948Z,54.02
2022-10-14T21:46:33.790Z,53.78
2022-10-14T21:49:02.100Z,53.81
2022-10-14T21:51:33.271Z,53.98
2022-10-14T21:54:01.718Z,54.06
2022-10-14T21:56:30.272Z,53.95
2022-10-14T21:58:58.622Z,54.17
2022-10-14T22:01:29.126Z,54.41
2022-10-14T22:04:00.134Z,54.48
2022-10-14T22:06:29.479Z,54.32
2022-10-14T22:09:01.670Z,54.65
2022-10-14T22:11:32.804Z,54.57
2022-10-14T22:14:03.214Z,54.73
2022-10-14T22:16:31.875Z,54.73
2022-10-14T22:19:03.279Z,54.73
2022-10-14T22:21:34.741Z,54.67
2022-10-14T22:24:05.304Z,54.99
2022-10-14T22:26:34.545Z,54.94
2022-10-14T22:29:06.198Z,54.89
2022-10-14T22:31:35.528Z,55.13
2022-10-14T22:34:07.878Z,55.15
2022-10-14T22:36:36.949Z,55.24
2022-10-14T22:39:09.183Z,55.23
2022-10-14T22:41:37.504Z,55.08
2022-10-14T22:44:08.398Z,55.00
2022-10-14T22:46:38.394Z,55.31
2022-10-14T22:49:07.123Z,55.33
2022-10-14T22:51:37.801Z,55.21
2022-10-14T22:54:07.762Z,55.22
2022-10-14T22:56:36.081Z,55.24
2022-10-14T22:59:08.710Z,55.37
2022-10-14T23:01:37.545Z,55.32
2022-10-14T23:04:06.291Z,55.56
2022-10-14T23:06:35.066Z,55.38
2022-10-14T23:09:04.343Z,55.63
2022-10-14T23:11:34.036Z,55.44
2022-10-14T23:14:06.167Z,55.67
2022-10-14T23:16:36.256Z,55.85
2022-10-14T23:19:04.897Z,55.89
2022-10-14T23:21:35.272Z,55.65
2022-10-14T23:24:07.141Z,56.09
2022-10-14T23:26:37.231Z,55.86
2022-10-14T23:29:09.056Z,55.99
2022-10-14T23:31:39.433Z,55.81
2022-10-14T23:34:12.402Z,56.14
2022-10-14T23:36:41.244Z,56.11
2022-10-14T23:39:09.670Z,55.87
2022-10-14T23:41:39.750Z,56.09
2022-10-14T23:44:08.031Z,55.81
2022-10-14T23:46:36.514Z,55.83
2022-10-14T23:49:24.487Z,55.76
2022-10-14T23:51:53.190Z,56.13
2022-10-14T23:54:21.559Z,56.07
2022-10-14T23:56:51.323Z,55.98
2022-10-14T23:59:19.848Z,56.18
